createdAt,value
2018-02-04T08:15:32.019Z,1001.6
2018-02-04T08:16:33.367Z,1001.7
2018-02-04T08:18:04.899Z,1001.7
2018-02-04T08:19:06.281Z,1001.7
2018-02-04T08:20:37.168Z,1001.7
2018-02-04T08:21:38.531Z,1001.7
2018-02-04T08:23:09.341Z,1001.7
2018-02-04T08:24:10.698Z,1001.7
2018-02-04T08:25:42.220Z,1001.7
2018-02-04T08:26:43.585Z,1001.7
2018-02-04T08:28:14.472Z,1001.7
2018-02-04T08:29:15.838Z,1001.7
2018-02-04T08:30:36.639Z,1001.8
2018-02-04T08:31:38.009Z,1001.8
2018-02-04T08:33:08.844Z,1001.8
2018-02-04T08:34:10.215Z,1001.8
2018-02-04T08:35:41.726Z,1001.8
2018-02-04T08:36:43.135Z,1001.8
2018-02-04T08:38:14.041Z,1001.8
2018-02-04T08:39:15.402Z,1001.8
2018-02-04T08:40:36.913Z,1001.9
2018-02-04T08:41:38.284Z,1001.9
2018-02-04T08:43:09.182Z,1001.9
2018-02-04T08:44:10.544Z,1001.9
2018-02-04T08:45:41.371Z,1001.9
2018-02-04T08:46:42.767Z,1001.9
2018-02-04T08:48:13.639Z,1001.9
2018-02-04T08:49:15.041Z,1001.9
2018-02-04T08:50:35.819Z,1001.9
2018-02-04T08:51:37.186Z,1002.0
2018-02-04T08:53:08.704Z,1002.0
2018-02-04T08:54:10.075Z,1002.0
2018-02-04T08:55:40.992Z,1002.0
2018-02-04T08:56:42.394Z,1002.0
2018-02-04T08:58:14.102Z,1002.0
2018-02-04T08:59:15.474Z,1002.0
2018-02-04T09:00:36.209Z,1002.0
2018-02-04T09:01:37.600Z,1002.1
2018-02-04T09:03:08.481Z,1002.0
2018-02-04T09:04:09.840Z,1002.0
2018-02-04T09:05:30.805Z,1002.1
2018-02-04T09:06:32.171Z,1002.1
2018-02-04T09:08:03.077Z,1002.1
2018-02-04T09:09:04.448Z,1002.1
2018-02-04T09:10:35.341Z,1002.1
2018-02-04T09:11:36.711Z,1002.1
2018-02-04T09:13:07.561Z,1002.2
2018-02-04T09:14:08.940Z,1002.1
2018-02-04T09:15:39.788Z,1002.2
2018-02-04T09:16:41.155Z,1002.2
2018-02-04T09:18:11.959Z,1002.2
2018-02-04T09:19:13.333Z,1002.2
2018-02-04T09:20:44.239Z,1002.3
2018-02-04T09:21:45.609Z,1002.2
2018-02-04T09:23:16.474Z,1002.3
2018-02-04T09:24:17.848Z,1002.3
2018-02-04T09:25:48.681Z,1002.3
2018-02-04T09:26:50.051Z,1002.3
2018-02-04T09:28:20.840Z,1002.3
2018-02-04T09:29:22.322Z,1002.4
2018-02-04T09:30:43.089Z,1002.3
2018-02-04T09:31:44.457Z,1002.4
2018-02-04T09:33:15.312Z,1002.4
2018-02-04T09:34:17.426Z,1002.4
2018-02-04T09:35:48.299Z,1002.4
2018-02-04T09:36:49.669Z,1002.4
2018-02-04T09:38:20.510Z,1002.5
2018-02-04T09:39:21.999Z,1002.5
2018-02-04T09:40:42.726Z,1002.6
2018-02-04T09:41:44.090Z,1002.6
2018-02-04T09:43:15.601Z,1002.6
2018-02-04T09:44:16.975Z,1002.6
2018-02-04T09:45:47.888Z,1002.6
2018-02-04T09:46:49.257Z,1002.6
2018-02-04T09:48:20.127Z,1002.6
2018-02-04T09:49:21.653Z,1002.6
2018-02-04T09:50:42.384Z,1002.6
2018-02-04T09:51:43.758Z,1002.7
2018-02-04T09:53:24.896Z,1002.6
2018-02-04T09:54:26.280Z,1002.6
2018-02-04T09:55:57.145Z,1002.7
2018-02-04T09:56:58.499Z,1002.7
2018-02-04T09:58:29.374Z,1002.7
2018-02-04T09:59:30.741Z,1002.7
2018-02-04T10:00:51.456Z,1002.8
2018-02-04T10:01:52.834Z,1002.8
2018-02-04T10:03:23.634Z,1002.8
2018-02-04T10:04:25.008Z,1002.8
2018-02-04T10:05:55.866Z,1002.9
2018-02-04T10:06:57.224Z,1002.9
2018-02-04T10:08:28.054Z,1002.9
2018-02-04T10:09:29.423Z,1002.9
2018-02-04T10:10:50.214Z,1002.9
2018-02-04T10:11:51.584Z,1002.9
2018-02-04T10:13:22.465Z,1002.9
2018-02-04T10:14:23.850Z,1002.9
2018-02-04T10:15:54.735Z,1002.9
2018-02-04T10:16:56.109Z,1002.9
2018-02-04T10:18:26.984Z,1003.0
2018-02-04T10:19:28.370Z,1003.0
2018-02-04T10:20:49.123Z,1003.0
2018-02-04T10:21:51.428Z,1003.0
2018-02-04T10:23:22.251Z,1003.0
2018-02-04T10:24:23.624Z,1003.0
2018-02-04T10:25:54.469Z,1003.0
2018-02-04T10:26:55.833Z,1003.0
2018-02-04T10:28:26.686Z,1003.1
2018-02-04T10:29:28.056Z,1003.0
2018-02-04T10:30:48.788Z,1003.1
2018-02-04T10:31:50.159Z,1003.1
2018-02-04T10:33:21.685Z,1003.1
2018-02-04T10:34:23.045Z,1003.1
2018-02-04T10:35:53.936Z,1003.1
2018-02-04T10:36:55.303Z,1003.1
2018-02-04T10:38:26.131Z,1003.1
2018-02-04T10:39:27.504Z,1003.1
2018-02-04T10:40:49.022Z,1003.1
2018-02-04T10:41:50.383Z,1003.1
2018-02-04T10:43:21.905Z,1003.1
2018-02-04T10:44:23.278Z,1003.1
2018-02-04T10:45:54.134Z,1003.2
2018-02-04T10:46:55.505Z,1003.2
2018-02-04T10:48:26.373Z,1003.2
2018-02-04T10:49:27.730Z,1003.2
2018-02-04T10:50:48.440Z,1003.2
2018-02-04T10:51:49.811Z,1003.2
2018-02-04T10:53:20.684Z,1003.2
2018-02-04T10:54:22.049Z,1003.3
2018-02-04T10:56:03.125Z,1003.2
2018-02-04T10:57:04.486Z,1003.3
2018-02-04T10:58:35.334Z,1003.3
2018-02-04T10:59:36.708Z,1003.3
2018-02-04T11:00:57.491Z,1003.4
2018-02-04T11:01:58.838Z,1003.4
2018-02-04T11:03:29.649Z,1003.4
2018-02-04T11:04:31.017Z,1003.4
2018-02-04T11:06:01.899Z,1003.4
2018-02-04T11:07:03.263Z,1003.4
2018-02-04T11:08:34.120Z,1003.4
2018-02-04T11:09:35.497Z,1003.4
2018-02-04T11:10:56.287Z,1003.5
2018-02-04T11:11:57.659Z,1003.5
2018-02-04T11:13:29.177Z,1003.5
2018-02-04T11:14:30.540Z,1003.5
2018-02-04T11:16:01.378Z,1003.5
2018-02-04T11:17:03.635Z,1003.5
2018-02-04T11:18:34.492Z,1003.6
2018-02-04T11:19:35.856Z,1003.6
2018-02-04T11:20:56.546Z,1003.6
2018-02-04T11:21:57.924Z,1003.6
2018-02-04T11:23:28.782Z,1003.6
2018-02-04T11:24:30.152Z,1003.6
2018-02-04T11:26:01.052Z,1003.6
2018-02-04T11:27:02.422Z,1003.6
2018-02-04T11:28:33.215Z,1003.6
2018-02-04T11:29:34.584Z,1003.6
2018-02-04T11:30:55.402Z,1003.6
2018-02-04T11:31:56.786Z,1003.6
2018-02-04T11:33:17.760Z,1003.6
2018-02-04T11:34:19.129Z,1003.6
2018-02-04T11:35:49.945Z,1003.7
2018-02-04T11:36:51.320Z,1003.6
2018-02-04T11:38:22.207Z,1003.7
2018-02-04T11:39:23.586Z,1003.7
2018-02-04T11:40:44.388Z,1003.7
2018-02-04T11:41:45.759Z,1003.7
2018-02-04T11:43:16.640Z,1003.7
2018-02-04T11:44:18.046Z,1003.7
2018-02-04T11:45:48.894Z,1003.7
2018-02-04T11:46:50.257Z,1003.7
2018-02-04T11:48:21.074Z,1003.7
2018-02-04T11:49:22.439Z,1003.7
2018-02-04T11:50:43.188Z,1003.8
2018-02-04T11:51:44.546Z,1003.7
2018-02-04T11:53:15.418Z,1003.8
2018-02-04T11:54:16.783Z,1003.8
2018-02-04T11:55:48.299Z,1003.8
2018-02-04T11:56:49.673Z,1003.8
2018-02-04T11:58:10.580Z,1003.8
2018-02-04T11:59:11.956Z,1003.8
2018-02-04T12:00:42.763Z,1003.8
2018-02-04T12:01:44.132Z,1003.8
2018-02-04T12:03:14.994Z,1003.8
2018-02-04T12:04:16.368Z,1003.8
2018-02-04T12:05:47.206Z,1003.9
2018-02-04T12:06:48.565Z,1003.8
2018-02-04T12:08:19.443Z,1003.9
2018-02-04T12:09:20.822Z,1003.9
2018-02-04T12:10:41.633Z,1003.9
2018-02-04T12:11:43.012Z,1003.9
2018-02-04T12:13:13.846Z,1003.9
2018-02-04T12:14:15.220Z,1003.9
2018-02-04T12:15:46.031Z,1003.9
2018-02-04T12:16:47.396Z,1003.9
2018-02-04T12:18:18.248Z,1003.9
2018-02-04T12:19:19.614Z,1003.9
2018-02-04T12:20:40.346Z,1003.9
2018-02-04T12:21:41.714Z,1003.9
2018-02-04T12:23:12.609Z,1003.9
2018-02-04T12:24:14.023Z,1003.9
2018-02-04T12:25:34.917Z,1003.9
2018-02-04T12:26:36.283Z,1003.9
2018-02-04T12:28:07.180Z,1003.9
2018-02-04T12:29:08.546Z,1003.9
2018-02-04T12:30:39.437Z,1003.9
2018-02-04T12:31:40.826Z,1003.9
2018-02-04T12:33:11.670Z,1004.0
2018-02-04T12:34:13.127Z,1004.0
2018-02-04T12:35:43.920Z,1003.9
2018-02-04T12:36:45.288Z,1003.9
2018-02-04T12:38:16.149Z,1003.9
2018-02-04T12:39:17.683Z,1003.9
2018-02-04T12:40:38.431Z,1004.0
2018-02-04T12:41:39.811Z,1003.9
2018-02-04T12:43:10.682Z,1004.0
2018-02-04T12:44:12.045Z,1004.0
2018-02-04T12:45:42.940Z,1004.0
2018-02-04T12:46:44.396Z,1004.0
2018-02-04T12:48:16.848Z,1004.0
2018-02-04T12:49:18.342Z,1004.0
2018-02-04T12:50:39.086Z,1004.0
2018-02-04T12:51:40.458Z,1004.0
2018-02-04T12:53:11.492Z,1004.0
2018-02-04T12:54:12.856Z,1004.1
2018-02-04T12:55:43.711Z,1004.0
2018-02-04T12:56:45.079Z,1004.0
2018-02-04T12:58:15.965Z,1004.0
2018-02-04T12:59:17.525Z,1004.0
2018-02-04T13:00:38.272Z,1004.0
2018-02-04T13:01:39.636Z,1004.1
2018-02-04T13:03:10.525Z,1004.1
2018-02-04T13:04:11.892Z,1004.2
2018-02-04T13:05:42.793Z,1004.1
2018-02-04T13:06:44.185Z,1004.1
2018-02-04T13:08:15.045Z,1004.2
2018-02-04T13:09:16.411Z,1004.2
2018-02-04T13:10:37.210Z,1004.2
2018-02-04T13:11:38.568Z,1004.2
2018-02-04T13:13:10.094Z,1004.2
2018-02-04T13:14:11.466Z,1004.3
2018-02-04T13:15:42.375Z,1004.3
2018-02-04T13:16:43.743Z,1004.3
2018-02-04T13:18:14.580Z,1004.4
2018-02-04T13:19:15.947Z,1004.3
2018-02-04T13:20:36.718Z,1004.4
2018-02-04T13:21:38.094Z,1004.4
2018-02-04T13:23:09.026Z,1004.4
2018-02-04T13:24:10.392Z,1004.4
2018-02-04T13:25:41.911Z,1004.4
2018-02-04T13:26:43.279Z,1004.5
2018-02-04T13:28:14.108Z,1004.4
2018-02-04T13:29:15.471Z,1004.5
2018-02-04T13:30:36.181Z,1004.4
2018-02-04T13:31:37.552Z,1004.5
2018-02-04T13:33:08.359Z,1004.5
2018-02-04T13:34:09.771Z,1004.5
2018-02-04T13:35:40.669Z,1004.5
2018-02-04T13:36:42.039Z,1004.5
2018-02-04T13:38:12.902Z,1004.5
2018-02-04T13:39:14.263Z,1004.5
2018-02-04T13:40:45.341Z,1004.5
2018-02-04T13:41:46.702Z,1004.5
2018-02-04T13:43:17.540Z,1004.6
2018-02-04T13:44:18.903Z,1004.6
2018-02-04T13:45:49.734Z,1004.6
2018-02-04T13:46:51.125Z,1004.6
2018-02-04T13:48:22.018Z,1004.6
2018-02-04T13:49:23.409Z,1004.6
2018-02-04T13:50:44.128Z,1004.6
2018-02-04T13:51:45.490Z,1004.6
2018-02-04T13:53:17.018Z,1004.6
2018-02-04T13:54:18.371Z,1004.6
2018-02-04T13:55:49.287Z,1004.7
2018-02-04T13:56:50.738Z,1004.7
2018-02-04T13:58:21.596Z,1004.7
2018-02-04T13:59:22.969Z,1004.7
2018-02-04T14:00:43.759Z,1004.7
2018-02-04T14:01:45.127Z,1004.7
2018-02-04T14:03:16.033Z,1004.7
2018-02-04T14:04:17.409Z,1004.7
2018-02-04T14:05:48.549Z,1004.7
2018-02-04T14:06:49.949Z,1004.8
2018-02-04T14:08:20.800Z,1004.8
2018-02-04T14:09:22.198Z,1004.8
2018-02-04T14:10:42.910Z,1004.8
2018-02-04T14:11:44.293Z,1004.8
2018-02-04T14:13:15.170Z,1004.8
2018-02-04T14:14:16.558Z,1004.8
2018-02-04T14:15:47.535Z,1004.8
2018-02-04T14:16:48.990Z,1004.8
2018-02-04T14:18:19.850Z,1004.9
2018-02-04T14:19:21.222Z,1004.9
2018-02-04T14:20:41.947Z,1004.9
2018-02-04T14:21:43.334Z,1004.9
2018-02-04T14:23:14.119Z,1004.9
2018-02-04T14:24:15.490Z,1004.9
2018-02-04T14:25:46.398Z,1004.9
2018-02-04T14:26:47.773Z,1005.0
2018-02-04T14:28:18.560Z,1005.0
2018-02-04T14:29:19.933Z,1005.0
2018-02-04T14:30:40.720Z,1005.0
2018-02-04T14:31:42.092Z,1005.0
2018-02-04T14:33:12.959Z,1004.9
2018-02-04T14:34:14.325Z,1005.0
2018-02-04T14:35:45.390Z,1005.0
2018-02-04T14:36:46.772Z,1005.0
2018-02-04T14:38:17.608Z,1005.0
2018-02-04T14:39:18.975Z,1005.0
2018-02-04T14:40:39.764Z,1005.0
2018-02-04T14:41:41.130Z,1005.0
2018-02-04T14:43:11.987Z,1005.0
2018-02-04T14:44:13.377Z,1005.1
2018-02-04T14:45:44.297Z,1005.1
2018-02-04T14:46:45.666Z,1005.2
2018-02-04T14:48:16.547Z,1005.2
2018-02-04T14:49:17.934Z,1005.2
2018-02-04T14:50:38.677Z,1005.2
2018-02-04T14:51:40.045Z,1005.2
2018-02-04T14:53:10.954Z,1005.2
2018-02-04T14:54:12.341Z,1005.2
2018-02-04T14:55:43.324Z,1005.2
2018-02-04T14:56:44.725Z,1005.2
2018-02-04T14:58:15.569Z,1005.3
2018-02-04T14:59:16.960Z,1005.3
2018-02-04T15:00:37.724Z,1005.3
2018-02-04T15:01:39.086Z,1005.4
2018-02-04T15:03:10.118Z,1005.4
2018-02-04T15:04:11.502Z,1005.4
2018-02-04T15:05:42.377Z,1005.4
2018-02-04T15:06:43.805Z,1005.4
2018-02-04T15:08:14.750Z,1005.4
2018-02-04T15:09:16.115Z,1005.4
2018-02-04T15:10:36.861Z,1005.4
2018-02-04T15:11:38.237Z,1005.4
2018-02-04T15:13:09.757Z,1005.4
2018-02-04T15:14:11.125Z,1005.5
2018-02-04T15:15:42.032Z,1005.5
2018-02-04T15:16:43.407Z,1005.5
2018-02-04T15:18:14.314Z,1005.5
2018-02-04T15:19:15.680Z,1005.5
2018-02-04T15:20:46.670Z,1005.5
2018-02-04T15:21:48.104Z,1005.6
2018-02-04T15:23:18.950Z,1005.5
2018-02-04T15:24:20.314Z,1005.6
2018-02-04T15:25:51.212Z,1005.6
2018-02-04T15:26:52.589Z,1005.6
2018-02-04T15:28:23.495Z,1005.6
2018-02-04T15:29:24.859Z,1005.6
2018-02-04T15:30:45.755Z,1005.6
2018-02-04T15:31:47.129Z,1005.6
2018-02-04T15:33:18.652Z,1005.7
2018-02-04T15:34:20.022Z,1005.7
2018-02-04T15:35:51.543Z,1005.7
2018-02-04T15:36:52.909Z,1005.7
2018-02-04T15:38:23.821Z,1005.7
2018-02-04T15:39:25.208Z,1005.7
2018-02-04T15:40:46.021Z,1005.7
2018-02-04T15:41:47.408Z,1005.7
2018-02-04T15:43:18.234Z,1005.8
2018-02-04T15:44:19.607Z,1005.8
2018-02-04T15:45:50.524Z,1005.8
2018-02-04T15:46:51.895Z,1005.8
2018-02-04T15:48:22.735Z,1005.8
2018-02-04T15:49:24.111Z,1005.8
2018-02-04T15:50:44.842Z,1005.8
2018-02-04T15:51:46.240Z,1005.8
2018-02-04T15:53:07.152Z,1005.8
2018-02-04T15:54:08.523Z,1005.8
2018-02-04T15:55:39.418Z,1005.8
2018-02-04T15:56:40.787Z,1005.8
2018-02-04T15:58:11.569Z,1005.8
2018-02-04T15:59:12.936Z,1005.8
2018-02-04T16:00:44.452Z,1005.8
2018-02-04T16:01:45.817Z,1005.8
2018-02-04T16:03:16.704Z,1005.8
2018-02-04T16:04:18.075Z,1005.8
2018-02-04T16:05:48.928Z,1005.8
2018-02-04T16:06:50.457Z,1005.8
2018-02-04T16:08:21.324Z,1005.8
2018-02-04T16:09:22.692Z,1005.8
2018-02-04T16:10:43.413Z,1005.8
2018-02-04T16:11:44.790Z,1005.8
2018-02-04T16:13:15.678Z,1005.9
2018-02-04T16:14:17.070Z,1005.8
2018-02-04T16:15:47.931Z,1005.9
2018-02-04T16:16:49.301Z,1005.9
2018-02-04T16:18:20.824Z,1005.9
2018-02-04T16:19:22.328Z,1005.9
2018-02-04T16:20:43.085Z,1006.0
2018-02-04T16:21:44.459Z,1006.0
2018-02-04T16:23:16.002Z,1006.0
2018-02-04T16:24:17.375Z,1006.0
2018-02-04T16:25:48.292Z,1006.1
2018-02-04T16:26:50.239Z,1006.0
2018-02-04T16:28:21.752Z,1006.1
2018-02-04T16:29:23.123Z,1006.1
2018-02-04T16:30:43.876Z,1006.1
2018-02-04T16:31:45.265Z,1006.1
2018-02-04T16:33:16.099Z,1006.1
2018-02-04T16:34:17.472Z,1006.2
2018-02-04T16:35:48.386Z,1006.2
2018-02-04T16:36:49.787Z,1006.2
2018-02-04T16:38:21.303Z,1006.2
2018-02-04T16:39:22.665Z,1006.2
2018-02-04T16:40:43.413Z,1006.1
2018-02-04T16:41:44.785Z,1006.1
2018-02-04T16:43:16.742Z,1006.1
2018-02-04T16:44:18.126Z,1006.1
2018-02-04T16:45:49.179Z,1006.1
2018-02-04T16:46:50.564Z,1006.1
2018-02-04T16:48:22.080Z,1006.2
2018-02-04T16:49:23.445Z,1006.2
2018-02-04T16:50:44.320Z,1006.2
2018-02-04T16:51:45.700Z,1006.2
2018-02-04T16:53:16.697Z,1006.2
2018-02-04T16:54:18.058Z,1006.2
2018-02-04T16:55:49.051Z,1006.3
2018-02-04T16:56:50.411Z,1006.3
2018-02-04T16:58:21.460Z,1006.3
2018-02-04T16:59:22.841Z,1006.3
2018-02-04T17:00:43.750Z,1006.3
2018-02-04T17:01:45.116Z,1006.3
2018-02-04T17:03:16.124Z,1006.4
2018-02-04T17:04:17.491Z,1006.4
2018-02-04T17:05:48.516Z,1006.4
2018-02-04T17:06:49.890Z,1006.4
2018-02-04T17:08:20.865Z,1006.4
2018-02-04T17:09:22.348Z,1006.5
2018-02-04T17:10:43.114Z,1006.4
2018-02-04T17:11:44.498Z,1006.5
2018-02-04T17:13:16.517Z,1006.5
2018-02-04T17:14:17.903Z,1006.5
2018-02-04T17:15:49.831Z,1006.5
2018-02-04T17:16:51.195Z,1006.5
2018-02-04T17:18:23.210Z,1006.5
2018-02-04T17:19:24.589Z,1006.5
2018-02-04T17:20:45.494Z,1006.5
2018-02-04T17:21:46.881Z,1006.5
2018-02-04T17:23:19.618Z,1006.5
2018-02-04T17:24:20.989Z,1006.5
2018-02-04T17:25:52.040Z,1006.5
2018-02-04T17:26:53.403Z,1006.5
2018-02-04T17:28:25.166Z,1006.6
2018-02-04T17:29:26.556Z,1006.6
2018-02-04T17:30:47.341Z,1006.6
2018-02-04T17:31:48.720Z,1006.6
2018-02-04T17:33:19.823Z,1006.6
2018-02-04T17:34:21.192Z,1006.6
2018-02-04T17:35:52.214Z,1006.6
2018-02-04T17:36:53.621Z,1006.6
2018-02-04T17:38:24.678Z,1006.6
2018-02-04T17:39:26.050Z,1006.6
2018-02-04T17:40:47.012Z,1006.7
2018-02-04T17:41:48.369Z,1006.7
2018-02-04T17:43:20.331Z,1006.7
2018-02-04T17:44:21.698Z,1006.7
2018-02-04T17:45:52.762Z,1006.6
2018-02-04T17:46:54.177Z,1006.7
2018-02-04T17:48:25.270Z,1006.7
2018-02-04T17:49:26.787Z,1006.7
2018-02-04T17:50:47.689Z,1006.7
2018-02-04T17:51:49.068Z,1006.7
2018-02-04T17:53:21.094Z,1006.7
2018-02-04T17:54:22.464Z,1006.7
2018-02-04T17:55:54.487Z,1006.7
2018-02-04T17:56:55.881Z,1006.8
2018-02-04T17:58:27.900Z,1006.7
2018-02-04T17:59:30.281Z,1006.7
2018-02-04T18:00:51.782Z,1006.8
2018-02-04T18:01:53.179Z,1006.7
2018-02-04T18:03:24.225Z,1006.8
2018-02-04T18:04:25.597Z,1006.8
2018-02-04T18:05:56.625Z,1006.8
2018-02-04T18:06:57.988Z,1006.8
2018-02-04T18:08:29.921Z,1006.8
2018-02-04T18:09:31.272Z,1006.8
2018-02-04T18:10:52.043Z,1006.8
2018-02-04T18:11:53.433Z,1006.8
2018-02-04T18:13:35.652Z,1006.8
2018-02-04T18:14:37.030Z,1006.8
2018-02-04T18:16:08.163Z,1006.9
2018-02-04T18:17:09.525Z,1006.8
2018-02-04T18:18:40.505Z,1006.9
2018-02-04T18:19:41.905Z,1006.9
2018-02-04T18:21:02.830Z,1006.8
2018-02-04T18:22:04.206Z,1006.8
2018-02-04T18:23:35.317Z,1006.8
2018-02-04T18:24:36.696Z,1006.8
2018-02-04T18:26:07.793Z,1006.8
2018-02-04T18:27:09.166Z,1006.9
2018-02-04T18:28:41.108Z,1006.9
2018-02-04T18:29:42.483Z,1006.9
2018-02-04T18:31:04.000Z,1006.9
2018-02-04T18:32:05.389Z,1006.9
2018-02-04T18:33:36.522Z,1006.9
2018-02-04T18:34:37.880Z,1007.0
2018-02-04T18:36:09.811Z,1007.0
2018-02-04T18:37:11.180Z,1007.0
2018-02-04T18:38:42.326Z,1007.0
2018-02-04T18:39:43.692Z,1007.0
2018-02-04T18:41:04.554Z,1007.0
2018-02-04T18:42:05.927Z,1007.0
2018-02-04T18:43:36.978Z,1007.0
2018-02-04T18:44:38.347Z,1007.1
2018-02-04T18:46:09.385Z,1007.0
2018-02-04T18:47:10.760Z,1007.1
2018-02-04T18:48:41.835Z,1007.1
2018-02-04T18:49:43.202Z,1007.1
2018-02-04T18:51:04.756Z,1007.1
2018-02-04T18:52:06.095Z,1007.1
2018-02-04T18:53:37.242Z,1007.1
2018-02-04T18:54:38.674Z,1007.1
2018-02-04T18:56:09.848Z,1007.2
2018-02-04T18:57:11.217Z,1007.1
2018-02-04T18:58:42.337Z,1007.2
2018-02-04T18:59:43.716Z,1007.2
2018-02-04T19:01:04.545Z,1007.2
2018-02-04T19:02:05.932Z,1007.2
2018-02-04T19:03:36.926Z,1007.2
2018-02-04T19:04:38.290Z,1007.2
2018-02-04T19:06:09.472Z,1007.2
2018-02-04T19:07:10.859Z,1007.2
2018-02-04T19:08:42.816Z,1007.2
2018-02-04T19:09:44.190Z,1007.3
2018-02-04T19:11:05.887Z,1007.3
2018-02-04T19:12:07.270Z,1007.3
2018-02-04T19:13:38.216Z,1007.3
2018-02-04T19:14:39.591Z,1007.3
2018-02-04T19:16:10.588Z,1007.3
2018-02-04T19:17:11.964Z,1007.3
2018-02-04T19:18:43.138Z,1007.4
2018-02-04T19:19:44.554Z,1007.4
2018-02-04T19:21:05.390Z,1007.4
2018-02-04T19:22:06.759Z,1007.5
2018-02-04T19:23:38.740Z,1007.4
2018-02-04T19:24:40.135Z,1007.5
2018-02-04T19:26:11.159Z,1007.5
2018-02-04T19:27:12.533Z,1007.5
2018-02-04T19:28:44.480Z,1007.5
2018-02-04T19:29:45.867Z,1007.5
2018-02-04T19:31:06.819Z,1007.6
2018-02-04T19:32:08.187Z,1007.6
2018-02-04T19:33:41.228Z,1007.6
2018-02-04T19:34:42.601Z,1007.5
2018-02-04T19:36:15.398Z,1007.5
2018-02-04T19:37:16.773Z,1007.6
2018-02-04T19:38:48.794Z,1007.6
2018-02-04T19:39:50.169Z,1007.6
2018-02-04T19:41:10.993Z,1007.6
2018-02-04T19:42:12.367Z,1007.6
2018-02-04T19:43:43.416Z,1007.6
2018-02-04T19:44:44.786Z,1007.6
2018-02-04T19:46:16.754Z,1007.6
2018-02-04T19:47:18.134Z,1007.6
2018-02-04T19:48:49.315Z,1007.6
2018-02-04T19:49:50.695Z,1007.6
2018-02-04T19:51:11.414Z,1007.6
2018-02-04T19:52:12.828Z,1007.6
2018-02-04T19:53:44.852Z,1007.6
2018-02-04T19:54:46.233Z,1007.6
2018-02-04T19:56:17.188Z,1007.6
2018-02-04T19:57:18.558Z,1007.6
2018-02-04T19:58:49.529Z,1007.6
2018-02-04T19:59:50.913Z,1007.6
2018-02-04T20:01:11.791Z,1007.6
2018-02-04T20:02:13.158Z,1007.6
2018-02-04T20:03:44.301Z,1007.6
2018-02-04T20:04:45.677Z,1007.6
2018-02-04T20:06:16.575Z,1007.6
2018-02-04T20:07:18.626Z,1007.6
2018-02-04T20:08:49.665Z,1007.7
2018-02-04T20:09:51.098Z,1007.6
2018-02-04T20:11:11.865Z,1007.7
2018-02-04T20:12:13.244Z,1007.6
2018-02-04T20:13:44.374Z,1007.6
2018-02-04T20:14:45.732Z,1007.7
2018-02-04T20:16:17.340Z,1007.7
2018-02-04T20:17:18.681Z,1007.7
2018-02-04T20:18:49.695Z,1007.6
2018-02-04T20:19:51.145Z,1007.6
2018-02-04T20:21:11.955Z,1007.7
2018-02-04T20:22:13.343Z,1007.7
2018-02-04T20:23:44.312Z,1007.7
2018-02-04T20:24:45.727Z,1007.7
2018-02-04T20:26:16.601Z,1007.7
2018-02-04T20:27:17.988Z,1007.7
2018-02-04T20:28:49.517Z,1007.7
2018-02-04T20:29:50.899Z,1007.7
2018-02-04T20:31:12.410Z,1007.7
2018-02-04T20:32:13.793Z,1007.7
2018-02-04T20:33:44.693Z,1007.7
2018-02-04T20:34:46.074Z,1007.8
2018-02-04T20:36:16.988Z,1007.7
2018-02-04T20:37:18.357Z,1007.8
2018-02-04T20:38:49.468Z,1007.8
2018-02-04T20:39:50.840Z,1007.8
2018-02-04T20:41:11.672Z,1007.8
2018-02-04T20:42:13.054Z,1007.8
2018-02-04T20:43:44.339Z,1007.8
2018-02-04T20:44:45.698Z,1007.9
2018-02-04T20:46:16.788Z,1007.8
2018-02-04T20:47:18.154Z,1007.9
2018-02-04T20:48:49.203Z,1007.9
2018-02-04T20:49:50.585Z,1007.9
2018-02-04T20:51:11.408Z,1007.9
2018-02-04T20:52:12.805Z,1007.9
2018-02-04T20:53:44.774Z,1007.9
2018-02-04T20:54:46.144Z,1007.9
2018-02-04T20:56:17.188Z,1007.9
2018-02-04T20:57:18.538Z,1007.9
2018-02-04T20:58:49.589Z,1007.9
2018-02-04T20:59:50.961Z,1007.9
2018-02-04T21:01:11.808Z,1007.9
2018-02-04T21:02:13.184Z,1007.9
2018-02-04T21:03:44.364Z,1008.0
2018-02-04T21:04:45.672Z,1007.9
2018-02-04T21:06:16.753Z,1007.9
2018-02-04T21:07:18.130Z,1007.9
2018-02-04T21:08:50.036Z,1008.0
2018-02-04T21:09:51.402Z,1008.0
2018-02-04T21:11:12.289Z,1008.0
2018-02-04T21:12:13.660Z,1008.0
2018-02-04T21:13:45.699Z,1008.0
2018-02-04T21:14:47.083Z,1008.0
2018-02-04T21:16:18.172Z,1008.1
2018-02-04T21:17:19.564Z,1008.1
2018-02-04T21:18:50.611Z,1008.1
2018-02-04T21:19:51.994Z,1008.1
2018-02-04T21:21:12.877Z,1008.1
2018-02-04T21:22:14.264Z,1008.2
2018-02-04T21:23:45.425Z,1008.1
2018-02-04T21:24:46.815Z,1008.2
2018-02-04T21:26:17.914Z,1008.1
2018-02-04T21:27:19.284Z,1008.1
2018-02-04T21:28:50.317Z,1008.2
2018-02-04T21:29:51.727Z,1008.2
2018-02-04T21:31:12.609Z,1008.2
2018-02-04T21:32:14.072Z,1008.2
2018-02-04T21:33:45.213Z,1008.2
2018-02-04T21:34:46.579Z,1008.2
2018-02-04T21:36:17.690Z,1008.2
2018-02-04T21:37:19.079Z,1008.2
2018-02-04T21:38:50.147Z,1008.2
2018-02-04T21:39:51.528Z,1008.3
2018-02-04T21:41:13.030Z,1008.3
2018-02-04T21:42:14.411Z,1008.2
2018-02-04T21:43:45.487Z,1008.2
2018-02-04T21:44:46.878Z,1008.3
2018-02-04T21:46:17.933Z,1008.3
2018-02-04T21:47:19.317Z,1008.3
2018-02-04T21:48:50.430Z,1008.3
2018-02-04T21:49:51.801Z,1008.3
2018-02-04T21:51:12.683Z,1008.3
2018-02-04T21:52:14.041Z,1008.3
2018-02-04T21:53:45.932Z,1008.3
2018-02-04T21:54:47.301Z,1008.3
2018-02-04T21:56:18.436Z,1008.3
2018-02-04T21:57:19.809Z,1008.3
2018-02-04T21:58:50.823Z,1008.3
2018-02-04T21:59:52.249Z,1008.3
2018-02-04T22:01:13.138Z,1008.3
2018-02-04T22:02:14.566Z,1008.3
2018-02-04T22:03:45.710Z,1008.3
2018-02-04T22:04:47.100Z,1008.3
2018-02-04T22:06:18.230Z,1008.3
2018-02-04T22:07:19.593Z,1008.3
2018-02-04T22:08:50.551Z,1008.3
2018-02-04T22:09:51.928Z,1008.3
2018-02-04T22:11:12.779Z,1008.3
2018-02-04T22:12:14.176Z,1008.3
2018-02-04T22:13:45.267Z,1008.3
2018-02-04T22:14:46.663Z,1008.3
2018-02-04T22:16:17.723Z,1008.2
2018-02-04T22:17:19.083Z,1008.2
2018-02-04T22:18:50.032Z,1008.2
2018-02-04T22:19:51.399Z,1008.2
2018-02-04T22:21:12.232Z,1008.2
2018-02-04T22:22:13.592Z,1008.3
2018-02-04T22:23:44.719Z,1008.3
2018-02-04T22:24:46.082Z,1008.3
2018-02-04T22:26:17.169Z,1008.3
2018-02-04T22:27:18.536Z,1008.3
2018-02-04T22:28:49.564Z,1008.3
2018-02-04T22:29:50.933Z,1008.3
2018-02-04T22:31:11.792Z,1008.3
2018-02-04T22:32:13.152Z,1008.3
2018-02-04T22:33:44.254Z,1008.3
2018-02-04T22:34:45.626Z,1008.3
2018-02-04T22:36:17.652Z,1008.3
2018-02-04T22:37:19.019Z,1008.3
2018-02-04T22:38:50.081Z,1008.3
2018-02-04T22:39:51.501Z,1008.3
2018-02-04T22:41:12.286Z,1008.4
2018-02-04T22:42:13.660Z,1008.4
2018-02-04T22:43:44.636Z,1008.4
2018-02-04T22:44:46.004Z,1008.4
2018-02-04T22:46:17.128Z,1008.4
2018-02-04T22:47:18.495Z,1008.4
2018-02-04T22:48:49.582Z,1008.4
2018-02-04T22:49:50.968Z,1008.4
2018-02-04T22:51:11.836Z,1008.4
2018-02-04T22:52:13.203Z,1008.4
2018-02-04T22:53:44.284Z,1008.4
2018-02-04T22:54:46.525Z,1008.5
2018-02-04T22:56:17.609Z,1008.4
2018-02-04T22:57:18.973Z,1008.5
2018-02-04T22:58:50.052Z,1008.5
2018-02-04T22:59:51.435Z,1008.5
2018-02-04T23:01:12.314Z,1008.5
2018-02-04T23:02:13.697Z,1008.6
2018-02-04T23:03:44.781Z,1008.6
2018-02-04T23:04:46.143Z,1008.6
2018-02-04T23:06:17.284Z,1008.5
2018-02-04T23:07:18.660Z,1008.6
2018-02-04T23:08:49.715Z,1008.6
2018-02-04T23:09:51.092Z,1008.6
2018-02-04T23:11:11.952Z,1008.6
2018-02-04T23:12:13.320Z,1008.6
2018-02-04T23:13:44.442Z,1008.6
2018-02-04T23:14:45.810Z,1008.6
2018-02-04T23:16:16.896Z,1008.6
2018-02-04T23:17:18.265Z,1008.6
2018-02-04T23:18:49.395Z,1008.6
2018-02-04T23:19:50.756Z,1008.6
2018-02-04T23:21:11.637Z,1008.6
2018-02-04T23:22:13.002Z,1008.7
2018-02-04T23:23:44.142Z,1008.7
2018-02-04T23:24:45.507Z,1008.7
2018-02-04T23:26:16.662Z,1008.7
2018-02-04T23:27:18.022Z,1008.7
2018-02-04T23:28:49.044Z,1008.8
2018-02-04T23:29:50.406Z,1008.8
2018-02-04T23:31:11.257Z,1008.8
2018-02-04T23:32:12.628Z,1008.8
2018-02-04T23:33:43.773Z,1008.8
2018-02-04T23:34:45.134Z,1008.8
2018-02-04T23:36:16.112Z,1008.8
2018-02-04T23:37:17.477Z,1008.8
2018-02-04T23:38:48.612Z,1008.8
2018-02-04T23:39:49.980Z,1008.8
2018-02-04T23:41:11.702Z,1008.8
2018-02-04T23:42:13.066Z,1008.8
2018-02-04T23:43:44.215Z,1008.8
2018-02-04T23:44:45.577Z,1008.8
2018-02-04T23:46:17.352Z,1008.8
2018-02-04T23:47:18.718Z,1008.8
2018-02-04T23:48:50.709Z,1008.8
2018-02-04T23:49:52.079Z,1008.9
2018-02-04T23:51:12.944Z,1008.8